Dundalk, Maryland
Current Conditions -  °F | °C
As of 4:45 PM on Friday 24 Oct 2014 (Local Time) from KMTN Reporting Station
Scattered Clouds Scattered Clouds  
Wind Chill: 66°   Ceiling: Unl
Heat Index: 66°   Visibility: 10mi
Dew Point: 39°   Wind: 14mph
Humidity: 37%   Direction: 270°W
Pressure: 29.87"   Gusts: 18mph
Location:  39.27°N, 76.5°W
Report Text: KMTN 242045Z 27012G16KT 10SM SCT150 19/04 A2987
Loading
Personal Weather Stations






























Interactive Weather Map
Tropical Storm Tracking
New forecast layout! Learn more

10-Day Weather Forecast

Advertisements
Track Severe Weather on mobile